Time;durP1;ratioP1;P1;durP2;ratioP2;P2;SDS_P1;SDS_P2;PMS_P1;PMS_P2;Temp;Humidity;BMP_temperature;BMP_pressure;BME280_temperature;BME280_humidity;BME280_pressure;Samples;Min_cycle;Max_cycle;Signal;HPM_P1;HPM_P2
2022/04/07 00:02:23;;;;;;;0.30;0.20;;;11.00;99.90;;;;;;5027777;28;20036;-71
2022/04/07 00:04:48;;;;;;;0.73;0.40;;;10.90;99.90;;;;;;5031715;28;20021;-71
2022/04/07 00:07:14;;;;;;;0.50;0.40;;;10.90;99.90;;;;;;5022390;28;20582;-71
2022/04/07 00:09:40;;;;;;;1.50;0.20;;;10.90;99.90;;;;;;5025201;28;20044;-70
2022/04/07 00:12:09;;;;;;;1.33;0.20;;;10.90;99.90;;;;;;5029111;28;20021;-71
2022/04/07 00:14:35;;;;;;;1.27;0.40;;;10.90;99.90;;;;;;5028532;28;20045;-72
2022/04/07 00:17:00;;;;;;;0.22;0.17;;;10.80;99.90;;;;;;5030560;28;20018;-72
2022/04/07 00:19:26;;;;;;;1.10;0.20;;;10.80;99.90;;;;;;5023710;28;20101;-71
2022/04/07 00:21:51;;;;;;;0.52;0.30;;;10.80;99.90;;;;;;5026636;28;20049;-72
2022/04/07 00:24:21;;;;;;;0.50;0.40;;;10.60;99.90;;;;;;5024662;28;20502;-72
2022/04/07 00:26:47;;;;;;;0.55;0.30;;;10.60;99.90;;;;;;5030917;28;20029;-72
2022/04/07 00:29:12;;;;;;;0.75;0.30;;;10.50;99.90;;;;;;5028317;28;20040;-71
2022/04/07 00:31:42;;;;;;;1.10;0.32;;;10.50;99.90;;;;;;5032923;28;20091;-72
2022/04/07 00:34:07;;;;;;;0.52;0.40;;;10.40;99.90;;;;;;5025604;28;20021;-71
2022/04/07 00:36:33;;;;;;;0.70;0.50;;;10.30;99.90;;;;;;5026462;28;20075;-71
2022/04/07 00:38:59;;;;;;;0.55;0.40;;;10.20;99.90;;;;;;5033676;28;20100;-71
2022/04/07 00:41:27;;;;;;;0.85;0.40;;;10.20;99.90;;;;;;5037055;28;20083;-71
2022/04/07 00:43:53;;;;;;;2.58;0.38;;;10.10;99.90;;;;;;5031914;28;20113;-70
2022/04/07 00:46:19;;;;;;;0.70;0.40;;;10.10;99.90;;;;;;5029748;28;20037;-70
2022/04/07 00:48:45;;;;;;;0.60;0.40;;;10.10;99.90;;;;;;5032138;28;20055;-70
2022/04/07 00:51:12;;;;;;;0.45;0.30;;;10.10;99.90;;;;;;5032028;28;20033;-69
2022/04/07 00:53:38;;;;;;;0.80;0.40;;;10.00;99.90;;;;;;5027708;28;20086;-69
2022/04/07 00:56:06;;;;;;;0.70;0.28;;;10.00;99.90;;;;;;5029759;28;20102;-69
2022/04/07 00:58:33;;;;;;;1.00;0.30;;;10.00;99.90;;;;;;5027004;28;20018;-69
2022/04/07 01:00:59;;;;;;;0.20;0.20;;;10.00;99.90;;;;;;5026683;28;20112;-69
2022/04/07 01:03:28;;;;;;;0.40;0.30;;;9.90;99.90;;;;;;5044053;28;20156;-70
2022/04/07 01:05:54;;;;;;;0.60;0.30;;;9.90;99.90;;;;;;5031279;28;20104;-70
2022/04/07 01:08:20;;;;;;;0.60;0.30;;;9.90;99.90;;;;;;5030322;28;20120;-70
2022/04/07 01:10:47;;;;;;;0.70;0.30;;;9.90;99.90;;;;;;5026104;28;20033;-68
2022/04/07 01:13:19;;;;;;;1.45;0.43;;;9.80;99.90;;;;;;5022296;28;20040;-69
2022/04/07 01:15:47;;;;;;;0.90;0.40;;;9.80;99.90;;;;;;5033271;28;20037;-69
2022/04/07 01:18:17;;;;;;;0.75;0.50;;;9.80;99.90;;;;;;5026035;28;20032;-68
2022/04/07 01:20:43;;;;;;;0.52;0.45;;;9.80;99.90;;;;;;5026304;28;20056;-68
2022/04/07 01:23:09;;;;;;;0.80;0.40;;;9.80;99.90;;;;;;5025888;28;20029;-69
2022/04/07 01:25:36;;;;;;;0.38;0.30;;;9.80;99.90;;;;;;5024666;28;20377;-69
2022/04/07 01:28:01;;;;;;;0.45;0.30;;;9.80;99.90;;;;;;5024514;28;20500;-67
2022/04/07 01:30:27;;;;;;;0.50;0.30;;;9.80;99.90;;;;;;5026073;28;20193;-69
2022/04/07 01:32:57;;;;;;;0.50;0.38;;;9.80;99.90;;;;;;5027413;28;20048;-68
2022/04/07 01:35:24;;;;;;;1.05;0.80;;;9.80;99.90;;;;;;5027035;28;20435;-69
2022/04/07 01:37:57;;;;;;;0.60;0.40;;;9.80;99.90;;;;;;5027056;28;20052;-69
2022/04/07 01:40:28;;;;;;;1.80;0.60;;;9.80;99.90;;;;;;5022852;28;20037;-70
2022/04/07 01:42:55;;;;;;;0.60;0.50;;;9.80;99.90;;;;;;5024813;28;20386;-70
2022/04/07 01:45:21;;;;;;;0.70;0.22;;;9.80;99.90;;;;;;5026114;28;20026;-70
2022/04/07 01:47:47;;;;;;;1.08;0.40;;;9.80;99.90;;;;;;5028287;28;20048;-70
2022/04/07 01:50:19;;;;;;;0.57;0.47;;;9.80;99.90;;;;;;5024673;28;20387;-69
2022/04/07 01:52:48;;;;;;;0.68;0.50;;;9.90;99.90;;;;;;5028459;28;20079;-70
2022/04/07 01:55:18;;;;;;;0.80;0.30;;;9.80;99.90;;;;;;5026754;28;20045;-71
2022/04/07 01:57:44;;;;;;;0.90;0.40;;;9.90;99.90;;;;;;5027409;28;20037;-71
2022/04/07 02:00:10;;;;;;;2.25;0.40;;;9.80;99.90;;;;;;5040351;28;20022;-70
2022/04/07 02:02:36;;;;;;;2.30;0.68;;;9.80;99.90;;;;;;5027412;28;20436;-70
2022/04/07 02:05:08;;;;;;;0.52;0.40;;;9.80;99.90;;;;;;5027386;28;20026;-70
2022/04/07 02:07:35;;;;;;;3.13;0.50;;;9.80;99.90;;;;;;5042401;28;20112;-69
2022/04/07 02:10:02;;;;;;;0.90;0.40;;;9.80;99.90;;;;;;5025224;28;20378;-70
2022/04/07 02:12:29;;;;;;;1.08;0.50;;;9.80;99.90;;;;;;5024024;28;20034;-68
2022/04/07 02:14:56;;;;;;;1.02;0.60;;;9.80;99.90;;;;;;5023801;28;20040;-69
2022/04/07 02:17:28;;;;;;;1.25;0.50;;;9.80;99.90;;;;;;5025330;28;20087;-69
2022/04/07 02:19:58;;;;;;;0.38;0.20;;;9.90;99.90;;;;;;5023295;28;20065;-68
2022/04/07 02:22:28;;;;;;;0.98;0.30;;;9.80;99.90;;;;;;5026178;28;20033;-69
2022/04/07 02:24:58;;;;;;;0.80;0.20;;;9.90;99.90;;;;;;5022226;28;20128;-67
2022/04/07 02:27:37;;;;;;;0.60;0.30;;;9.80;99.90;;;;;;5026574;28;20421;-68
2022/04/07 02:30:13;;;;;;;0.40;0.32;;;9.80;99.90;;;;;;5024464;28;20033;-70
2022/04/07 02:32:40;;;;;;;0.32;0.30;;;9.80;99.90;;;;;;5025329;28;20339;-69
2022/04/07 02:35:07;;;;;;;0.80;0.40;;;9.80;99.90;;;;;;5024802;28;20507;-69
2022/04/07 02:37:36;;;;;;;2.80;0.65;;;9.80;99.90;;;;;;5026629;28;20105;-69
2022/04/07 02:40:01;;;;;;;1.48;0.35;;;9.80;99.90;;;;;;5042162;28;20430;-69
2022/04/07 02:42:27;;;;;;;0.50;0.40;;;9.70;99.90;;;;;;5026314;28;20033;-68
2022/04/07 02:44:53;;;;;;;0.77;0.30;;;9.70;99.90;;;;;;5024726;28;20064;-68
2022/04/07 02:47:38;;;;;;;0.30;0.30;;;9.70;99.90;;;;;;5026043;28;20487;-69
2022/04/07 02:50:07;;;;;;;2.50;0.30;;;9.60;99.90;;;;;;5027665;28;20063;-70
2022/04/07 02:52:33;;;;;;;0.43;0.30;;;9.60;99.90;;;;;;5025237;28;20029;-69
2022/04/07 02:54:59;;;;;;;1.30;0.43;;;9.60;99.90;;;;;;5020358;28;20159;-70
2022/04/07 02:57:30;;;;;;;3.55;0.57;;;9.60;99.90;;;;;;5024185;28;20022;-71
2022/04/07 02:59:58;;;;;;;0.30;0.25;;;9.60;99.90;;;;;;5024441;28;20537;-70
2022/04/07 03:02:24;;;;;;;0.55;0.30;;;9.60;99.90;;;;;;5026989;28;20061;-70
2022/04/07 03:04:50;;;;;;;0.90;0.40;;;9.60;99.90;;;;;;5024456;28;20036;-70
2022/04/07 03:07:15;;;;;;;0.77;0.50;;;9.60;99.90;;;;;;5027384;28;20029;-69
2022/04/07 03:09:56;;;;;;;1.50;0.40;;;9.60;99.90;;;;;;5024290;28;20056;-68
2022/04/07 03:12:22;;;;;;;0.55;0.38;;;9.50;99.90;;;;;;5022260;28;20057;-69
2022/04/07 03:14:50;;;;;;;0.50;0.30;;;9.50;99.90;;;;;;5022863;28;20168;-68
2022/04/07 03:17:16;;;;;;;0.85;0.47;;;9.50;99.90;;;;;;5024634;28;20028;-68
2022/04/07 03:19:47;;;;;;;0.80;0.38;;;9.50;99.90;;;;;;5026168;28;20021;-69
2022/04/07 03:22:19;;;;;;;2.42;0.47;;;9.50;99.90;;;;;;5021801;28;20498;-68
2022/04/07 03:24:46;;;;;;;0.77;0.40;;;9.50;99.90;;;;;;5024750;28;20076;-69
2022/04/07 03:27:12;;;;;;;0.47;0.30;;;9.50;99.90;;;;;;5021889;28;20037;-70
2022/04/07 03:29:41;;;;;;;1.02;0.43;;;9.50;99.90;;;;;;5022229;28;20030;-69
2022/04/07 03:32:09;;;;;;;1.00;0.38;;;9.60;99.90;;;;;;5023323;28;20033;-69
2022/04/07 03:34:41;;;;;;;2.47;0.43;;;9.60;99.90;;;;;;5024493;28;20033;-71
2022/04/07 03:37:10;;;;;;;1.13;0.50;;;9.70;99.90;;;;;;5023970;28;20173;-69
2022/04/07 03:39:42;;;;;;;0.70;0.50;;;9.70;99.90;;;;;;5022714;28;20654;-70
2022/04/07 03:42:13;;;;;;;0.50;0.40;;;9.80;99.90;;;;;;5043384;28;20386;-67
2022/04/07 03:44:47;;;;;;;1.90;0.43;;;9.80;99.90;;;;;;5025595;28;20079;-67
2022/04/07 03:47:16;;;;;;;0.60;0.38;;;9.80;99.90;;;;;;5021350;28;20517;-69
2022/04/07 03:49:57;;;;;;;2.78;0.43;;;9.80;99.90;;;;;;5025215;28;20075;-69
2022/04/07 03:52:23;;;;;;;1.02;0.35;;;9.80;99.90;;;;;;5024031;28;20620;-70
2022/04/07 03:54:49;;;;;;;1.33;0.40;;;9.80;99.90;;;;;;5024922;28;20034;-70
2022/04/07 03:57:18;;;;;;;0.98;0.40;;;9.70;99.90;;;;;;5021305;28;20065;-70
2022/04/07 03:59:44;;;;;;;1.17;0.50;;;9.70;99.90;;;;;;5024545;28;20025;-70
2022/04/07 04:02:13;;;;;;;0.88;0.40;;;9.60;99.90;;;;;;5023824;28;20482;-67
2022/04/07 04:04:38;;;;;;;0.80;0.35;;;9.60;99.90;;;;;;5022455;28;20065;-70
2022/04/07 04:07:04;;;;;;;2.20;0.63;;;9.60;99.90;;;;;;5023963;28;20095;-70
2022/04/07 04:09:31;;;;;;;2.83;0.63;;;9.50;99.90;;;;;;5021550;28;20405;-70
2022/04/07 04:11:57;;;;;;;0.70;0.40;;;9.50;99.90;;;;;;5025774;28;20036;-70
2022/04/07 04:14:23;;;;;;;0.52;0.30;;;9.50;99.90;;;;;;5024054;28;20502;-70
2022/04/07 04:16:51;;;;;;;1.73;0.50;;;9.50;99.90;;;;;;5025998;28;20022;-70
2022/04/07 04:19:17;;;;;;;3.17;0.40;;;9.50;99.90;;;;;;5028814;28;20091;-70
2022/04/07 04:21:46;;;;;;;1.17;0.40;;;9.40;99.90;;;;;;5020586;28;20029;-69
2022/04/07 04:24:15;;;;;;;0.80;0.30;;;9.40;99.90;;;;;;5023974;28;20029;-69
2022/04/07 04:26:41;;;;;;;0.85;0.43;;;9.40;99.90;;;;;;5024541;28;20033;-70
2022/04/07 04:29:09;;;;;;;0.65;0.32;;;9.30;99.90;;;;;;5023082;28;20118;-68
2022/04/07 04:31:35;;;;;;;0.22;0.22;;;9.30;99.90;;;;;;5024796;28;20029;-69
2022/04/07 04:34:01;;;;;;;0.73;0.30;;;9.30;99.90;;;;;;5019068;28;20037;-68
2022/04/07 04:36:28;;;;;;;0.60;0.30;;;9.30;99.90;;;;;;5023415;28;20042;-70
2022/04/07 04:38:54;;;;;;;0.50;0.30;;;9.20;99.90;;;;;;5042656;28;20026;-68
2022/04/07 04:41:23;;;;;;;0.68;0.30;;;9.20;99.90;;;;;;5023747;28;20044;-70
2022/04/07 04:43:49;;;;;;;1.35;0.50;;;9.20;99.90;;;;;;5022812;28;20568;-68
2022/04/07 04:46:23;;;;;;;2.30;0.30;;;9.20;99.90;;;;;;5024125;28;20037;-70
2022/04/07 04:48:52;;;;;;;0.25;0.20;;;9.20;99.90;;;;;;5023626;28;20037;-70
2022/04/07 04:51:17;;;;;;;0.73;0.30;;;9.20;99.90;;;;;;5023013;28;20036;-69
2022/04/07 04:53:43;;;;;;;0.30;0.30;;;9.30;99.90;;;;;;5017512;28;20530;-69
2022/04/07 04:56:08;;;;;;;0.30;0.20;;;9.40;99.90;;;;;;5026298;28;20025;-67
2022/04/07 04:58:34;;;;;;;0.73;0.28;;;9.40;99.90;;;;;;5021407;28;20029;-68
2022/04/07 05:01:03;;;;;;;0.40;0.20;;;9.50;99.90;;;;;;5022806;28;20032;-68
2022/04/07 05:03:31;;;;;;;2.13;0.30;;;9.60;99.90;;;;;;5020956;28;20034;-68
2022/04/07 05:05:57;;;;;;;1.75;0.30;;;9.60;99.90;;;;;;5019805;28;20392;-67
2022/04/07 05:08:23;;;;;;;0.95;0.30;;;9.70;99.90;;;;;;5022080;28;20033;-67
2022/04/07 05:10:48;;;;;;;0.40;0.25;;;9.80;99.90;;;;;;5016549;28;20033;-69
2022/04/07 05:13:14;;;;;;;0.40;0.20;;;9.80;99.90;;;;;;5012917;28;20772;-68
2022/04/07 05:15:40;;;;;;;0.73;0.30;;;9.80;99.90;;;;;;5018462;28;20740;-71
2022/04/07 05:18:06;;;;;;;0.75;0.25;;;9.90;99.90;;;;;;5023425;28;20052;-70
2022/04/07 05:20:31;;;;;;;1.40;0.30;;;9.90;99.90;;;;;;5020814;28;20479;-71
2022/04/07 05:22:57;;;;;;;1.75;0.20;;;10.00;99.90;;;;;;5020426;28;20017;-70
2022/04/07 05:25:23;;;;;;;1.73;0.20;;;10.00;99.90;;;;;;5023583;28;20244;-69
2022/04/07 05:27:49;;;;;;;0.30;0.30;;;10.10;99.90;;;;;;5026437;28;20029;-68
2022/04/07 05:30:18;;;;;;;0.80;0.47;;;10.10;99.90;;;;;;5027418;28;20033;-69
2022/04/07 05:32:45;;;;;;;1.58;0.38;;;10.20;99.90;;;;;;5025696;28;20125;-69
2022/04/07 05:35:12;;;;;;;0.28;0.20;;;10.50;99.90;;;;;;5025888;28;20036;-72
2022/04/07 05:37:38;;;;;;;0.50;0.30;;;10.60;99.90;;;;;;5024624;28;20386;-72
2022/04/07 05:40:05;;;;;;;0.43;0.25;;;10.60;99.90;;;;;;5026048;28;20087;-71
2022/04/07 05:42:31;;;;;;;1.67;0.50;;;10.60;99.90;;;;;;5022680;28;20089;-72
2022/04/07 05:45:00;;;;;;;0.40;0.13;;;10.50;99.90;;;;;;5026188;28;20026;-72
2022/04/07 05:47:25;;;;;;;1.10;0.35;;;10.50;99.90;;;;;;5036393;28;20033;-73
2022/04/07 05:49:54;;;;;;;1.55;0.30;;;10.50;99.90;;;;;;5027377;28;20518;-69
2022/04/07 05:52:19;;;;;;;0.47;0.30;;;10.40;99.90;;;;;;5024588;28;20096;-68
2022/04/07 05:54:45;;;;;;;0.50;0.22;;;10.50;99.90;;;;;;5026469;28;20498;-69
2022/04/07 05:57:11;;;;;;;0.63;0.22;;;10.50;99.90;;;;;;5024419;28;20144;-67
2022/04/07 05:59:36;;;;;;;1.23;0.30;;;10.60;99.90;;;;;;5025443;28;20038;-69
2022/04/07 06:02:02;;;;;;;0.20;0.20;;;10.60;99.90;;;;;;5024351;28;20368;-68
2022/04/07 06:04:28;;;;;;;0.38;0.20;;;10.70;99.90;;;;;;5041566;28;20035;-69
2022/04/07 06:06:53;;;;;;;0.47;0.30;;;10.70;99.90;;;;;;5024842;28;20026;-68
2022/04/07 06:09:19;;;;;;;0.30;0.20;;;10.70;99.90;;;;;;5025147;28;20061;-70
2022/04/07 06:11:45;;;;;;;0.55;0.30;;;10.80;99.90;;;;;;5028093;28;20065;-69
2022/04/07 06:14:10;;;;;;;2.10;0.45;;;10.90;99.90;;;;;;5025245;28;20032;-70
2022/04/07 06:16:36;;;;;;;1.05;0.30;;;10.90;99.90;;;;;;5026158;28;20033;-69
2022/04/07 06:19:02;;;;;;;2.15;0.20;;;10.90;99.90;;;;;;5028802;28;20079;-72
2022/04/07 06:21:31;;;;;;;0.82;0.28;;;11.00;99.90;;;;;;5023807;28;20021;-69
2022/04/07 06:23:57;;;;;;;0.50;0.30;;;11.00;99.90;;;;;;5021347;28;20022;-69
2022/04/07 06:26:23;;;;;;;4.85;0.30;;;11.00;99.90;;;;;;5021648;28;21254;-70
2022/04/07 06:28:55;;;;;;;1.80;0.38;;;11.10;99.90;;;;;;5028321;28;20464;-70
2022/04/07 06:31:21;;;;;;;0.50;0.30;;;11.20;99.90;;;;;;5039072;28;20072;-70
2022/04/07 06:33:46;;;;;;;0.95;0.32;;;11.30;99.90;;;;;;5023865;28;20061;-69
2022/04/07 06:36:12;;;;;;;1.55;0.20;;;11.30;99.90;;;;;;5026610;28;20026;-69
2022/04/07 06:38:37;;;;;;;1.40;0.30;;;11.30;99.90;;;;;;5022470;28;20025;-69
2022/04/07 06:41:03;;;;;;;0.30;0.20;;;11.30;99.90;;;;;;5024596;28;20030;-70
2022/04/07 06:43:29;;;;;;;1.75;0.25;;;11.30;99.90;;;;;;5023025;28;20075;-69
2022/04/07 06:45:55;;;;;;;0.20;0.20;;;11.20;99.90;;;;;;5025304;28;20108;-70
2022/04/07 06:48:21;;;;;;;0.60;0.20;;;11.20;99.90;;;;;;5025883;28;20022;-69
2022/04/07 06:50:46;;;;;;;0.45;0.30;;;11.30;99.90;;;;;;5036117;28;20510;-68
2022/04/07 06:53:12;;;;;;;0.73;0.38;;;11.40;99.90;;;;;;5021959;28;20060;-69
2022/04/07 06:55:38;;;;;;;0.63;0.30;;;11.40;99.90;;;;;;5020365;28;20025;-69
2022/04/07 06:58:06;;;;;;;0.80;0.30;;;11.40;99.90;;;;;;5025893;28;20078;-69
2022/04/07 07:00:45;;;;;;;1.83;0.20;;;11.40;99.90;;;;;;5022965;28;20402;-69
2022/04/07 07:03:14;;;;;;;0.95;0.20;;;11.40;99.90;;;;;;5021690;28;20025;-69
2022/04/07 07:05:40;;;;;;;3.03;0.13;;;11.40;99.90;;;;;;5020015;28;20025;-68
2022/04/07 07:08:16;;;;;;;1.50;0.30;;;11.40;99.90;;;;;;5053227;23;20037;-67
2022/04/07 07:10:43;;;;;;;0.77;0.30;;;11.50;99.90;;;;;;5010368;28;20030;-67
2022/04/07 07:13:09;;;;;;;0.30;0.20;;;11.60;99.90;;;;;;5011073;28;20343;-68
2022/04/07 07:15:34;;;;;;;1.15;0.30;;;11.60;99.90;;;;;;5008980;28;20034;-68
2022/04/07 07:18:00;;;;;;;0.68;0.30;;;11.60;99.90;;;;;;5011401;28;20117;-67
2022/04/07 07:20:26;;;;;;;0.65;0.30;;;11.70;99.90;;;;;;5009951;28;20477;-67
2022/04/07 07:22:51;;;;;;;2.83;0.80;;;11.70;99.90;;;;;;5007975;28;20026;-68
2022/04/07 07:25:17;;;;;;;1.15;0.40;;;11.80;99.90;;;;;;5009024;28;20466;-68
2022/04/07 07:27:47;;;;;;;0.22;0.20;;;11.90;99.90;;;;;;5012364;28;20065;-67
2022/04/07 07:30:15;;;;;;;1.02;0.30;;;11.90;99.90;;;;;;5012261;28;20026;-67
2022/04/07 07:32:43;;;;;;;1.58;0.30;;;11.90;99.90;;;;;;5011514;28;20038;-67
2022/04/07 07:35:10;;;;;;;5.95;0.30;;;12.00;99.90;;;;;;5008566;28;20041;-68
2022/04/07 07:37:36;;;;;;;1.25;0.20;;;12.00;99.90;;;;;;5011079;28;20022;-68
2022/04/07 07:40:10;;;;;;;0.60;0.20;;;12.00;99.90;;;;;;5008732;28;20025;-67
2022/04/07 07:42:37;;;;;;;0.63;0.28;;;12.00;99.90;;;;;;5007934;28;20483;-68
2022/04/07 07:45:07;;;;;;;3.13;0.30;;;12.10;99.90;;;;;;5024244;28;20025;-68
2022/04/07 07:47:34;;;;;;;0.85;0.30;;;12.10;99.90;;;;;;5010231;28;20474;-67
2022/04/07 07:50:00;;;;;;;0.95;0.22;;;12.20;99.90;;;;;;5011136;28;20045;-68
2022/04/07 07:52:26;;;;;;;0.55;0.10;;;12.20;99.90;;;;;;5011793;28;20036;-67
2022/04/07 07:54:52;;;;;;;0.73;0.30;;;12.20;99.90;;;;;;5014445;28;20471;-67
2022/04/07 07:57:19;;;;;;;0.88;0.30;;;12.30;99.90;;;;;;5009189;28;20550;-68
2022/04/07 07:59:45;;;;;;;1.55;0.30;;;12.40;99.90;;;;;;5011690;28;20022;-67
2022/04/07 08:02:11;;;;;;;3.40;0.50;;;12.50;99.90;;;;;;5012792;28;20040;-68
2022/04/07 08:04:36;;;;;;;0.55;0.13;;;12.40;99.90;;;;;;5010848;28;20029;-68
2022/04/07 08:07:03;;;;;;;0.65;0.40;;;12.50;99.90;;;;;;5007941;28;20026;-68
2022/04/07 08:09:31;;;;;;;2.05;0.30;;;12.50;99.90;;;;;;5009042;28;20070;-68
2022/04/07 08:11:57;;;;;;;1.45;0.20;;;12.50;99.90;;;;;;5010501;28;20340;-68
2022/04/07 08:14:22;;;;;;;4.15;0.40;;;12.50;99.90;;;;;;5009227;28;20030;-67
2022/04/07 08:16:48;;;;;;;1.65;0.25;;;12.50;99.90;;;;;;5011353;28;20036;-67
2022/04/07 08:19:14;;;;;;;1.27;0.38;;;12.60;99.90;;;;;;5011042;28;20029;-67
2022/04/07 08:21:42;;;;;;;2.75;0.40;;;12.60;99.90;;;;;;5013074;28;20022;-67
2022/04/07 08:24:08;;;;;;;1.52;0.73;;;12.70;99.90;;;;;;5010311;28;20036;-68
2022/04/07 08:26:34;;;;;;;1.17;0.50;;;12.70;99.90;;;;;;5012385;28;20466;-68
2022/04/07 08:29:00;;;;;;;1.98;0.50;;;12.80;99.90;;;;;;5017297;28;20080;-68
2022/04/07 08:31:25;;;;;;;0.55;0.35;;;12.80;99.80;;;;;;5012443;28;20025;-68
2022/04/07 08:33:52;;;;;;;1.90;0.40;;;13.10;99.80;;;;;;5006173;28;20037;-67
2022/04/07 08:36:17;;;;;;;0.60;0.22;;;13.20;99.30;;;;;;5008906;28;20022;-67
2022/04/07 08:38:43;;;;;;;0.85;0.47;;;13.30;98.90;;;;;;5007719;28;20033;-67
2022/04/07 08:41:11;;;;;;;0.80;0.30;;;13.20;98.80;;;;;;5013652;28;20120;-67
2022/04/07 08:43:42;;;;;;;1.23;0.50;;;13.20;99.00;;;;;;5013090;28;20109;-67
2022/04/07 08:46:10;;;;;;;1.55;0.38;;;13.20;99.20;;;;;;5008462;28;20026;-68
2022/04/07 08:48:43;;;;;;;0.60;0.40;;;13.20;99.80;;;;;;5008613;28;20029;-67
2022/04/07 08:51:10;;;;;;;0.65;0.17;;;13.20;99.90;;;;;;5015830;28;20021;-68
2022/04/07 08:53:38;;;;;;;0.95;0.20;;;13.30;99.50;;;;;;5012799;28;20051;-68
2022/04/07 08:56:05;;;;;;;2.60;0.32;;;13.40;99.10;;;;;;5011486;28;20026;-67
2022/04/07 08:58:31;;;;;;;0.50;0.30;;;13.50;98.70;;;;;;5011056;28;20030;-67
2022/04/07 09:00:56;;;;;;;0.57;0.30;;;13.60;98.60;;;;;;5013684;28;20497;-67
2022/04/07 09:03:23;;;;;;;0.70;0.40;;;13.80;98.20;;;;;;5016360;28;20025;-67
2022/04/07 09:06:06;;;;;;;0.55;0.30;;;13.80;97.80;;;;;;5017457;28;20046;-68
2022/04/07 09:08:37;;;;;;;0.73;0.30;;;14.10;97.60;;;;;;5014546;28;20030;-68
2022/04/07 09:11:13;;;;;;;0.63;0.30;;;14.20;97.30;;;;;;5014080;28;20030;-68
2022/04/07 09:13:40;;;;;;;0.32;0.28;;;14.40;96.70;;;;;;5026258;28;20040;-68
2022/04/07 09:16:12;;;;;;;1.52;0.40;;;14.40;96.80;;;;;;5011973;28;20426;-68
2022/04/07 09:18:39;;;;;;;2.17;0.45;;;14.40;99.00;;;;;;5011323;28;20034;-69
2022/04/07 09:21:15;;;;;;;0.63;0.20;;;14.10;99.90;;;;;;5012518;28;20474;-68
2022/04/07 09:23:42;;;;;;;0.55;0.40;;;14.00;99.90;;;;;;5013564;28;20455;-67
2022/04/07 09:26:16;;;;;;;1.27;0.28;;;14.10;99.90;;;;;;5014815;28;20427;-68
2022/04/07 09:28:42;;;;;;;0.52;0.20;;;14.10;99.90;;;;;;5009775;28;20034;-68
2022/04/07 09:31:13;;;;;;;0.38;0.20;;;14.10;99.90;;;;;;5012970;28;20038;-69
2022/04/07 09:33:51;;;;;;;0.30;0.20;;;14.10;99.90;;;;;;5012580;28;20034;-69
2022/04/07 09:36:21;;;;;;;0.10;0.10;;;14.10;99.90;;;;;;5008861;28;20022;-69
2022/04/07 09:38:52;;;;;;;0.52;0.20;;;14.30;99.90;;;;;;5012308;28;20383;-68
2022/04/07 09:41:22;;;;;;;0.45;0.22;;;14.50;99.50;;;;;;5009097;28;20018;-67
2022/04/07 09:44:04;;;;;;;0.60;0.30;;;14.50;97.80;;;;;;5008524;28;20068;-71
2022/04/07 09:46:35;;;;;;;0.70;0.20;;;14.50;97.70;;;;;;5008722;28;20045;-67
2022/04/07 09:49:04;;;;;;;1.75;0.30;;;14.50;97.00;;;;;;5009626;28;20022;-67
2022/04/07 09:51:36;;;;;;;3.50;0.30;;;14.50;96.80;;;;;;5010793;28;20394;-68
2022/04/07 09:54:02;;;;;;;1.60;0.32;;;14.40;96.40;;;;;;5013441;28;20375;-68
2022/04/07 09:56:28;;;;;;;0.30;0.20;;;14.50;95.90;;;;;;5010389;28;20467;-67
2022/04/07 09:58:55;;;;;;;0.68;0.35;;;14.50;95.80;;;;;;5010312;28;20045;-67
2022/04/07 10:01:22;;;;;;;0.45;0.30;;;14.70;95.90;;;;;;5024846;28;20683;-68
2022/04/07 10:03:51;;;;;;;1.17;0.32;;;14.70;95.90;;;;;;5008555;28;20072;-68
2022/04/07 10:06:18;;;;;;;2.67;0.60;;;14.70;95.50;;;;;;5008843;28;20034;-68
2022/04/07 10:08:47;;;;;;;4.60;0.93;;;14.80;95.10;;;;;;5014693;28;20037;-68
2022/04/07 10:11:17;;;;;;;0.98;0.47;;;14.80;95.60;;;;;;5008924;28;20504;-68
2022/04/07 10:13:45;;;;;;;1.13;0.47;;;14.90;95.20;;;;;;5012472;28;20109;-68
2022/04/07 10:16:11;;;;;;;0.40;0.22;;;14.80;95.40;;;;;;5012353;28;20033;-68
2022/04/07 10:19:11;;;;;;;2.13;1.20;;;14.80;95.30;;;;;;5012138;28;20045;-69
2022/04/07 10:21:56;;;;;;;2.22;0.35;;;14.90;95.60;;;;;;5013106;28;20057;-68
2022/04/07 10:24:33;;;;;;;1.67;1.05;;;14.90;95.00;;;;;;5013912;28;20022;-68
2022/04/07 10:27:02;;;;;;;2.45;0.50;;;14.90;94.90;;;;;;5013597;28;20037;-68
2022/04/07 10:29:29;;;;;;;0.88;0.40;;;15.10;95.20;;;;;;5011373;28;20080;-68
2022/04/07 10:32:18;;;;;;;0.88;0.40;;;14.90;94.20;;;;;;5013897;28;20542;-68
2022/04/07 10:34:57;;;;;;;1.80;0.75;;;14.90;94.40;;;;;;5008261;28;20026;-69
2022/04/07 10:37:45;;;;;;;2.47;0.30;;;14.90;94.20;;;;;;5010247;28;20493;-70
2022/04/07 10:40:39;;;;;;;7.55;1.17;;;14.90;93.90;;;;;;5009902;28;20030;-68
2022/04/07 10:43:09;;;;;;;0.80;0.52;;;14.90;93.90;;;;;;5007808;28;20031;-67
2022/04/07 10:45:36;;;;;;;1.38;0.30;;;15.00;94.20;;;;;;5010674;28;20040;-68
2022/04/07 10:48:25;;;;;;;2.40;0.20;;;15.10;93.80;;;;;;5009369;28;20080;-69
2022/04/07 10:51:09;;;;;;;0.47;0.30;;;15.20;94.10;;;;;;5008958;28;20030;-67
2022/04/07 10:53:40;;;;;;;2.85;0.43;;;15.30;93.60;;;;;;5001019;28;20021;-69
2022/04/07 10:56:34;;;;;;;0.95;0.60;;;15.40;93.00;;;;;;5009487;28;20042;-69
2022/04/07 10:59:19;;;;;;;1.25;0.30;;;15.30;93.10;;;;;;5010098;28;20014;-69
2022/04/07 11:02:09;;;;;;;2.90;0.30;;;15.20;93.20;;;;;;5008086;28;20026;-70
2022/04/07 11:04:41;;;;;;;0.25;0.15;;;14.90;93.40;;;;;;5006934;28;20067;-69
2022/04/07 11:07:16;;;;;;;0.80;0.30;;;14.80;93.40;;;;;;5012200;28;20026;-68
2022/04/07 11:09:52;;;;;;;2.13;0.43;;;14.80;93.90;;;;;;5004893;28;20560;-68
2022/04/07 11:12:22;;;;;;;0.80;0.40;;;14.80;93.90;;;;;;5008741;28;20029;-68
2022/04/07 11:15:10;;;;;;;0.75;0.30;;;14.80;93.90;;;;;;5012044;28;20033;-68
2022/04/07 11:18:15;;;;;;;0.50;0.40;;;14.70;94.20;;;;;;5005033;28;20422;-68
2022/04/07 11:21:08;;;;;;;0.57;0.20;;;14.70;94.30;;;;;;5006280;28;20065;-68
2022/04/07 11:23:52;;;;;;;0.90;0.45;;;14.80;94.60;;;;;;5008721;28;20022;-69
2022/04/07 11:26:27;;;;;;;2.13;0.40;;;14.90;94.30;;;;;;5007623;28;20018;-69
2022/04/07 11:29:05;;;;;;;0.93;0.20;;;14.90;94.10;;;;;;5011326;28;20067;-67
2022/04/07 11:31:46;;;;;;;0.43;0.20;;;15.00;94.10;;;;;;5010916;28;20479;-68
2022/04/07 11:34:39;;;;;;;0.40;0.17;;;15.00;94.10;;;;;;5007802;28;20030;-67
2022/04/07 11:37:19;;;;;;;3.38;0.40;;;15.10;94.20;;;;;;5007835;28;20030;-67
2022/04/07 11:39:50;;;;;;;0.30;0.20;;;15.20;94.00;;;;;;5010384;28;20037;-68
2022/04/07 11:42:17;;;;;;;2.40;0.65;;;15.10;93.70;;;;;;5009206;28;20056;-69
2022/04/07 11:44:45;;;;;;;1.95;0.25;;;15.20;94.10;;;;;;5009022;28;20041;-69
2022/04/07 11:47:30;;;;;;;1.35;0.20;;;15.20;93.80;;;;;;5007649;28;20029;-69
2022/04/07 11:49:56;;;;;;;0.50;0.30;;;15.20;94.30;;;;;;5009019;28;20121;-69
2022/04/07 11:52:24;;;;;;;0.30;0.20;;;15.20;94.30;;;;;;5009098;28;20101;-68
2022/04/07 11:54:53;;;;;;;1.50;0.38;;;15.40;94.60;;;;;;5011876;28;20026;-67
2022/04/07 11:57:20;;;;;;;0.68;0.20;;;15.50;94.20;;;;;;5010232;28;20052;-67
2022/04/07 11:59:45;;;;;;;0.57;0.20;;;15.60;93.90;;;;;;5011602;28;20429;-67
2022/04/07 12:02:20;;;;;;;0.20;0.20;;;15.60;93.40;;;;;;5007346;28;20029;-68
2022/04/07 12:04:56;;;;;;;2.60;0.20;;;15.60;93.50;;;;;;5006733;28;20026;-68
2022/04/07 12:07:22;;;;;;;0.30;0.25;;;15.40;93.80;;;;;;5012197;28;20149;-68
2022/04/07 12:09:48;;;;;;;0.63;0.30;;;15.30;94.60;;;;;;5003913;28;20105;-69
2022/04/07 12:12:14;;;;;;;0.47;0.30;;;15.20;95.80;;;;;;5004315;28;20032;-69
2022/04/07 12:14:42;;;;;;;1.27;0.40;;;15.30;95.70;;;;;;5007886;28;20037;-69
2022/04/07 12:17:09;;;;;;;2.35;0.20;;;15.40;94.60;;;;;;5008001;28;20041;-69
2022/04/07 12:19:46;;;;;;;1.55;0.30;;;15.30;94.00;;;;;;5008186;28;20960;-69
2022/04/07 12:22:13;;;;;;;1.13;0.30;;;15.40;93.70;;;;;;5006205;28;20436;-69
2022/04/07 12:24:56;;;;;;;0.80;0.40;;;15.30;93.60;;;;;;5022685;28;20704;-69
2022/04/07 12:27:27;;;;;;;0.10;0.10;;;15.10;93.60;;;;;;5006622;28;20034;-69
2022/04/07 12:29:53;;;;;;;0.70;0.25;;;15.10;93.70;;;;;;5004830;28;20026;-69
2022/04/07 12:32:18;;;;;;;0.30;0.20;;;15.20;94.00;;;;;;5008144;28;20036;-69
2022/04/07 12:34:50;;;;;;;0.68;0.20;;;15.30;93.90;;;;;;5010398;28;20482;-68
2022/04/07 12:37:36;;;;;;;0.10;0.10;;;15.30;93.40;;;;;;5012743;28;20453;-68
2022/04/07 12:40:02;;;;;;;1.40;0.22;;;15.50;93.60;;;;;;5011765;28;20053;-68
2022/04/07 12:42:28;;;;;;;0.60;0.40;;;15.40;93.20;;;;;;5013481;28;20129;-69
2022/04/07 12:45:08;;;;;;;2.20;0.40;;;15.30;93.60;;;;;;5013145;28;20120;-68
2022/04/07 12:47:33;;;;;;;0.40;0.20;;;15.00;94.30;;;;;;5013175;28;20482;-68
2022/04/07 12:50:01;;;;;;;0.77;0.20;;;14.60;94.90;;;;;;5013712;28;20028;-68
2022/04/07 12:52:41;;;;;;;0.85;0.30;;;14.60;95.40;;;;;;5012654;28;20026;-68
2022/04/07 12:55:10;;;;;;;0.28;0.10;;;14.60;95.50;;;;;;5013806;28;20382;-67
2022/04/07 12:57:40;;;;;;;0.30;0.20;;;14.50;95.70;;;;;;5012829;28;20032;-68
2022/04/07 13:00:10;;;;;;;1.38;0.20;;;14.60;95.70;;;;;;5012171;28;20030;-68
2022/04/07 13:02:44;;;;;;;5.70;0.30;;;14.60;95.50;;;;;;5011148;28;20030;-68